sensor_id;sensor_type;location;lat;lon;timestamp;P1;durP1;ratioP1;P2;durP2;ratioP2
53674;SDS011;39574;50.534;8.500;2022-12-11T00:02:51;27.6;;;14.3;;
53674;SDS011;39574;50.534;8.500;2022-12-11T00:07:49;26.7;;;14.1;;
53674;SDS011;39574;50.534;8.500;2022-12-11T00:12:48;28.6;;;14.2;;
53674;SDS011;39574;50.534;8.500;2022-12-11T00:17:46;30.0;;;15.7;;
53674;SDS011;39574;50.534;8.500;2022-12-11T00:22:45;28.4;;;15.1;;
53674;SDS011;39574;50.534;8.500;2022-12-11T00:27:44;31.7;;;17.1;;
53674;SDS011;39574;50.534;8.500;2022-12-11T00:32:41;30.4;;;16.0;;
53674;SDS011;39574;50.534;8.500;2022-12-11T00:37:40;29.8;;;15.1;;
53674;SDS011;39574;50.534;8.500;2022-12-11T00:42:38;29.0;;;14.6;;
53674;SDS011;39574;50.534;8.500;2022-12-11T00:47:37;27.4;;;13.9;;
53674;SDS011;39574;50.534;8.500;2022-12-11T00:52:35;26.8;;;14.0;;
53674;SDS011;39574;50.534;8.500;2022-12-11T00:57:33;26.6;;;14.3;;
53674;SDS011;39574;50.534;8.500;2022-12-11T01:02:32;28.3;;;14.8;;
53674;SDS011;39574;50.534;8.500;2022-12-11T01:07:31;30.3;;;15.2;;
53674;SDS011;39574;50.534;8.500;2022-12-11T01:12:29;30.9;;;15.7;;
53674;SDS011;39574;50.534;8.500;2022-12-11T01:17:28;33.0;;;16.8;;
53674;SDS011;39574;50.534;8.500;2022-12-11T01:22:26;41.0;;;19.3;;
53674;SDS011;39574;50.534;8.500;2022-12-11T01:27:24;41.4;;;19.7;;
53674;SDS011;39574;50.534;8.500;2022-12-11T01:32:23;40.1;;;19.2;;
53674;SDS011;39574;50.534;8.500;2022-12-11T01:37:21;37.7;;;18.1;;
53674;SDS011;39574;50.534;8.500;2022-12-11T01:42:20;32.8;;;16.8;;
53674;SDS011;39574;50.534;8.500;2022-12-11T01:47:18;30.7;;;15.8;;
53674;SDS011;39574;50.534;8.500;2022-12-11T01:52:17;29.8;;;15.7;;
53674;SDS011;39574;50.534;8.500;2022-12-11T01:57:15;32.9;;;16.9;;
53674;SDS011;39574;50.534;8.500;2022-12-11T02:02:16;35.8;;;17.7;;
53674;SDS011;39574;50.534;8.500;2022-12-11T02:07:12;33.7;;;17.1;;
53674;SDS011;39574;50.534;8.500;2022-12-11T02:12:12;40.9;;;19.9;;
53674;SDS011;39574;50.534;8.500;2022-12-11T02:17:10;38.6;;;19.3;;
53674;SDS011;39574;50.534;8.500;2022-12-11T02:22:09;35.5;;;18.3;;
53674;SDS011;39574;50.534;8.500;2022-12-11T02:27:10;37.4;;;18.7;;
53674;SDS011;39574;50.534;8.500;2022-12-11T02:32:05;34.6;;;17.6;;
53674;SDS011;39574;50.534;8.500;2022-12-11T02:37:04;33.2;;;16.9;;
53674;SDS011;39574;50.534;8.500;2022-12-11T02:42:02;32.4;;;16.4;;
53674;SDS011;39574;50.534;8.500;2022-12-11T02:47:00;32.7;;;16.1;;
53674;SDS011;39574;50.534;8.500;2022-12-11T02:51:59;32.7;;;16.1;;
53674;SDS011;39574;50.534;8.500;2022-12-11T02:56:57;32.9;;;16.4;;
53674;SDS011;39574;50.534;8.500;2022-12-11T03:01:55;35.8;;;17.6;;
53674;SDS011;39574;50.534;8.500;2022-12-11T03:06:55;34.2;;;17.1;;
53674;SDS011;39574;50.534;8.500;2022-12-11T03:11:52;35.6;;;17.5;;
53674;SDS011;39574;50.534;8.500;2022-12-11T03:16:51;34.9;;;16.9;;
53674;SDS011;39574;50.534;8.500;2022-12-11T03:21:51;32.4;;;15.9;;
53674;SDS011;39574;50.534;8.500;2022-12-11T03:26:49;30.3;;;15.2;;
53674;SDS011;39574;50.534;8.500;2022-12-11T03:36:44;29.4;;;15.0;;
53674;SDS011;39574;50.534;8.500;2022-12-11T03:41:43;30.0;;;15.1;;
53674;SDS011;39574;50.534;8.500;2022-12-11T03:46:42;31.6;;;16.4;;
53674;SDS011;39574;50.534;8.500;2022-12-11T03:51:40;33.0;;;16.9;;
53674;SDS011;39574;50.534;8.500;2022-12-11T03:56:39;36.0;;;18.0;;
53674;SDS011;39574;50.534;8.500;2022-12-11T04:01:37;36.2;;;17.9;;
53674;SDS011;39574;50.534;8.500;2022-12-11T04:06:35;37.9;;;18.3;;
53674;SDS011;39574;50.534;8.500;2022-12-11T04:11:34;35.8;;;17.8;;
53674;SDS011;39574;50.534;8.500;2022-12-11T04:16:32;35.5;;;18.0;;
53674;SDS011;39574;50.534;8.500;2022-12-11T04:21:31;36.3;;;18.3;;
53674;SDS011;39574;50.534;8.500;2022-12-11T04:26:30;36.7;;;18.3;;
53674;SDS011;39574;50.534;8.500;2022-12-11T04:31:28;35.5;;;17.8;;
53674;SDS011;39574;50.534;8.500;2022-12-11T04:36:26;34.1;;;17.4;;
53674;SDS011;39574;50.534;8.500;2022-12-11T04:41:25;34.7;;;17.9;;
53674;SDS011;39574;50.534;8.500;2022-12-11T04:46:23;35.3;;;17.8;;
53674;SDS011;39574;50.534;8.500;2022-12-11T04:51:22;38.2;;;18.3;;
53674;SDS011;39574;50.534;8.500;2022-12-11T04:56:20;39.8;;;18.8;;
53674;SDS011;39574;50.534;8.500;2022-12-11T05:01:20;40.1;;;19.1;;
53674;SDS011;39574;50.534;8.500;2022-12-11T05:06:18;41.6;;;20.3;;
53674;SDS011;39574;50.534;8.500;2022-12-11T05:11:16;40.7;;;20.1;;
53674;SDS011;39574;50.534;8.500;2022-12-11T05:16:15;38.9;;;19.4;;
53674;SDS011;39574;50.534;8.500;2022-12-11T05:21:13;38.1;;;18.9;;
53674;SDS011;39574;50.534;8.500;2022-12-11T05:26:12;37.2;;;18.6;;
53674;SDS011;39574;50.534;8.500;2022-12-11T05:31:11;37.5;;;18.6;;
53674;SDS011;39574;50.534;8.500;2022-12-11T05:36:09;36.8;;;18.3;;
53674;SDS011;39574;50.534;8.500;2022-12-11T05:41:07;36.7;;;18.4;;
53674;SDS011;39574;50.534;8.500;2022-12-11T05:46:06;36.3;;;18.5;;
53674;SDS011;39574;50.534;8.500;2022-12-11T05:51:05;35.7;;;18.3;;
53674;SDS011;39574;50.534;8.500;2022-12-11T05:56:03;36.2;;;18.3;;
53674;SDS011;39574;50.534;8.500;2022-12-11T06:01:02;36.8;;;18.4;;
53674;SDS011;39574;50.534;8.500;2022-12-11T06:06:00;38.3;;;18.8;;
53674;SDS011;39574;50.534;8.500;2022-12-11T06:10:58;38.8;;;19.4;;
53674;SDS011;39574;50.534;8.500;2022-12-11T06:15:59;37.7;;;19.4;;
53674;SDS011;39574;50.534;8.500;2022-12-11T06:20:55;39.0;;;19.6;;
53674;SDS011;39574;50.534;8.500;2022-12-11T06:25:54;39.5;;;20.4;;
53674;SDS011;39574;50.534;8.500;2022-12-11T06:30:53;41.0;;;21.5;;
53674;SDS011;39574;50.534;8.500;2022-12-11T06:35:51;44.4;;;23.3;;
53674;SDS011;39574;50.534;8.500;2022-12-11T06:40:53;44.7;;;22.4;;
53674;SDS011;39574;50.534;8.500;2022-12-11T06:45:48;43.5;;;21.5;;
53674;SDS011;39574;50.534;8.500;2022-12-11T06:50:46;39.9;;;20.0;;
53674;SDS011;39574;50.534;8.500;2022-12-11T06:55:45;37.8;;;19.4;;
53674;SDS011;39574;50.534;8.500;2022-12-11T07:00:43;38.1;;;19.6;;
53674;SDS011;39574;50.534;8.500;2022-12-11T07:05:42;39.7;;;19.8;;
53674;SDS011;39574;50.534;8.500;2022-12-11T07:10:40;40.9;;;20.1;;
53674;SDS011;39574;50.534;8.500;2022-12-11T07:15:39;41.1;;;20.2;;
53674;SDS011;39574;50.534;8.500;2022-12-11T07:20:38;42.4;;;20.4;;
53674;SDS011;39574;50.534;8.500;2022-12-11T07:25:36;40.6;;;20.3;;
53674;SDS011;39574;50.534;8.500;2022-12-11T07:30:36;41.0;;;20.0;;
53674;SDS011;39574;50.534;8.500;2022-12-11T07:35:34;40.0;;;20.1;;
53674;SDS011;39574;50.534;8.500;2022-12-11T07:40:32;40.2;;;20.3;;
53674;SDS011;39574;50.534;8.500;2022-12-11T07:45:30;40.6;;;20.4;;
53674;SDS011;39574;50.534;8.500;2022-12-11T07:50:29;40.2;;;20.3;;
53674;SDS011;39574;50.534;8.500;2022-12-11T07:55:28;41.1;;;20.5;;
53674;SDS011;39574;50.534;8.500;2022-12-11T08:00:26;43.4;;;21.4;;
53674;SDS011;39574;50.534;8.500;2022-12-11T08:05:24;44.5;;;22.0;;
53674;SDS011;39574;50.534;8.500;2022-12-11T08:10:23;44.0;;;22.0;;
53674;SDS011;39574;50.534;8.500;2022-12-11T08:15:22;45.0;;;22.3;;
53674;SDS011;39574;50.534;8.500;2022-12-11T08:20:20;44.9;;;22.2;;
53674;SDS011;39574;50.534;8.500;2022-12-11T08:25:19;43.6;;;21.6;;
53674;SDS011;39574;50.534;8.500;2022-12-11T08:30:17;43.4;;;21.6;;
53674;SDS011;39574;50.534;8.500;2022-12-11T08:35:16;42.5;;;21.5;;
53674;SDS011;39574;50.534;8.500;2022-12-11T08:40:14;42.6;;;21.5;;
53674;SDS011;39574;50.534;8.500;2022-12-11T08:45:13;44.8;;;22.1;;
53674;SDS011;39574;50.534;8.500;2022-12-11T08:50:12;47.4;;;23.1;;
53674;SDS011;39574;50.534;8.500;2022-12-11T08:55:10;46.3;;;23.0;;
53674;SDS011;39574;50.534;8.500;2022-12-11T09:00:10;44.8;;;22.4;;
53674;SDS011;39574;50.534;8.500;2022-12-11T09:05:08;43.9;;;22.3;;
53674;SDS011;39574;50.534;8.500;2022-12-11T09:10:06;45.9;;;22.6;;
53674;SDS011;39574;50.534;8.500;2022-12-11T09:15:05;47.8;;;23.4;;
53674;SDS011;39574;50.534;8.500;2022-12-11T09:20:03;48.7;;;23.0;;
53674;SDS011;39574;50.534;8.500;2022-12-11T09:25:02;48.4;;;23.0;;
53674;SDS011;39574;50.534;8.500;2022-12-11T09:30:00;48.1;;;22.9;;
53674;SDS011;39574;50.534;8.500;2022-12-11T09:34:59;48.0;;;22.4;;
53674;SDS011;39574;50.534;8.500;2022-12-11T09:39:57;46.7;;;22.2;;
53674;SDS011;39574;50.534;8.500;2022-12-11T09:44:56;46.0;;;21.8;;
53674;SDS011;39574;50.534;8.500;2022-12-11T09:49:56;46.6;;;22.2;;
53674;SDS011;39574;50.534;8.500;2022-12-11T09:54:54;46.9;;;22.6;;
53674;SDS011;39574;50.534;8.500;2022-12-11T10:04:52;45.1;;;22.4;;
53674;SDS011;39574;50.534;8.500;2022-12-11T10:09:50;42.1;;;21.3;;
53674;SDS011;39574;50.534;8.500;2022-12-11T10:14:51;38.3;;;19.5;;
53674;SDS011;39574;50.534;8.500;2022-12-11T10:19:45;36.6;;;18.6;;
53674;SDS011;39574;50.534;8.500;2022-12-11T10:24:45;38.7;;;20.3;;
53674;SDS011;39574;50.534;8.500;2022-12-11T10:29:43;39.9;;;20.7;;
53674;SDS011;39574;50.534;8.500;2022-12-11T10:34:41;37.9;;;19.0;;
53674;SDS011;39574;50.534;8.500;2022-12-11T10:39:40;36.5;;;18.1;;
53674;SDS011;39574;50.534;8.500;2022-12-11T10:44:38;34.7;;;17.4;;
53674;SDS011;39574;50.534;8.500;2022-12-11T10:49:37;37.6;;;19.3;;
53674;SDS011;39574;50.534;8.500;2022-12-11T10:54:36;40.0;;;20.7;;
53674;SDS011;39574;50.534;8.500;2022-12-11T10:59:36;35.5;;;18.3;;
53674;SDS011;39574;50.534;8.500;2022-12-11T11:04:34;29.1;;;14.9;;
53674;SDS011;39574;50.534;8.500;2022-12-11T11:09:32;24.3;;;12.2;;
53674;SDS011;39574;50.534;8.500;2022-12-11T11:14:30;20.6;;;10.6;;
53674;SDS011;39574;50.534;8.500;2022-12-11T11:19:29;19.7;;;9.8;;
53674;SDS011;39574;50.534;8.500;2022-12-11T11:24:27;18.6;;;9.3;;
53674;SDS011;39574;50.534;8.500;2022-12-11T11:29:27;18.8;;;9.6;;
53674;SDS011;39574;50.534;8.500;2022-12-11T11:34:24;19.2;;;9.7;;
53674;SDS011;39574;50.534;8.500;2022-12-11T11:39:25;19.0;;;9.8;;
53674;SDS011;39574;50.534;8.500;2022-12-11T11:44:23;19.6;;;10.3;;
53674;SDS011;39574;50.534;8.500;2022-12-11T11:49:21;19.4;;;10.1;;
53674;SDS011;39574;50.534;8.500;2022-12-11T11:54:21;23.5;;;11.6;;
53674;SDS011;39574;50.534;8.500;2022-12-11T11:59:18;28.5;;;13.4;;
53674;SDS011;39574;50.534;8.500;2022-12-11T12:04:15;27.9;;;13.0;;
53674;SDS011;39574;50.534;8.500;2022-12-11T12:09:16;26.4;;;12.2;;
53674;SDS011;39574;50.534;8.500;2022-12-11T12:14:13;22.8;;;11.0;;
53674;SDS011;39574;50.534;8.500;2022-12-11T12:19:12;24.5;;;11.8;;
53674;SDS011;39574;50.534;8.500;2022-12-11T12:24:13;22.7;;;11.2;;
53674;SDS011;39574;50.534;8.500;2022-12-11T12:29:11;20.9;;;10.7;;
53674;SDS011;39574;50.534;8.500;2022-12-11T12:34:09;19.0;;;9.6;;
53674;SDS011;39574;50.534;8.500;2022-12-11T12:39:07;16.9;;;8.9;;
53674;SDS011;39574;50.534;8.500;2022-12-11T12:44:08;16.0;;;8.4;;
53674;SDS011;39574;50.534;8.500;2022-12-11T12:49:02;16.6;;;8.6;;
53674;SDS011;39574;50.534;8.500;2022-12-11T12:54:01;17.1;;;8.6;;
53674;SDS011;39574;50.534;8.500;2022-12-11T12:58:59;17.3;;;8.7;;
53674;SDS011;39574;50.534;8.500;2022-12-11T13:03:59;17.4;;;8.5;;
53674;SDS011;39574;50.534;8.500;2022-12-11T13:08:56;17.6;;;8.7;;
53674;SDS011;39574;50.534;8.500;2022-12-11T13:14:00;16.9;;;8.2;;
53674;SDS011;39574;50.534;8.500;2022-12-11T13:18:54;15.9;;;7.7;;
53674;SDS011;39574;50.534;8.500;2022-12-11T13:23:52;15.2;;;7.5;;
53674;SDS011;39574;50.534;8.500;2022-12-11T13:28:51;15.2;;;7.6;;
53674;SDS011;39574;50.534;8.500;2022-12-11T13:33:50;15.3;;;7.5;;
53674;SDS011;39574;50.534;8.500;2022-12-11T13:38:49;14.8;;;7.4;;
53674;SDS011;39574;50.534;8.500;2022-12-11T13:43:47;15.7;;;7.7;;
53674;SDS011;39574;50.534;8.500;2022-12-11T13:48:46;16.3;;;8.1;;
53674;SDS011;39574;50.534;8.500;2022-12-11T13:53:45;15.6;;;8.0;;
53674;SDS011;39574;50.534;8.500;2022-12-11T13:58:43;16.4;;;8.2;;
53674;SDS011;39574;50.534;8.500;2022-12-11T14:03:42;17.9;;;8.7;;
53674;SDS011;39574;50.534;8.500;2022-12-11T14:08:41;18.6;;;8.8;;
53674;SDS011;39574;50.534;8.500;2022-12-11T14:13:38;18.3;;;8.6;;
53674;SDS011;39574;50.534;8.500;2022-12-11T14:18:37;17.9;;;8.7;;
53674;SDS011;39574;50.534;8.500;2022-12-11T14:23:36;17.5;;;8.2;;
53674;SDS011;39574;50.534;8.500;2022-12-11T14:28:35;17.4;;;8.4;;
53674;SDS011;39574;50.534;8.500;2022-12-11T14:33:34;18.2;;;8.6;;
53674;SDS011;39574;50.534;8.500;2022-12-11T14:38:32;17.0;;;8.3;;
53674;SDS011;39574;50.534;8.500;2022-12-11T14:43:31;17.2;;;8.4;;
53674;SDS011;39574;50.534;8.500;2022-12-11T14:48:30;17.2;;;8.3;;
53674;SDS011;39574;50.534;8.500;2022-12-11T14:53:28;18.8;;;9.5;;
53674;SDS011;39574;50.534;8.500;2022-12-11T14:58:26;20.0;;;9.9;;
53674;SDS011;39574;50.534;8.500;2022-12-11T15:03:29;19.3;;;9.6;;
53674;SDS011;39574;50.534;8.500;2022-12-11T15:08:24;17.7;;;8.6;;
53674;SDS011;39574;50.534;8.500;2022-12-11T15:13:22;16.4;;;8.1;;
53674;SDS011;39574;50.534;8.500;2022-12-11T15:18:22;17.8;;;8.6;;
53674;SDS011;39574;50.534;8.500;2022-12-11T15:23:19;19.5;;;9.3;;
53674;SDS011;39574;50.534;8.500;2022-12-11T15:28:21;20.7;;;10.3;;
53674;SDS011;39574;50.534;8.500;2022-12-11T15:33:17;23.2;;;11.5;;
53674;SDS011;39574;50.534;8.500;2022-12-11T15:38:23;22.3;;;11.3;;
53674;SDS011;39574;50.534;8.500;2022-12-11T15:43:13;20.7;;;10.3;;
53674;SDS011;39574;50.534;8.500;2022-12-11T15:48:12;20.4;;;10.8;;
53674;SDS011;39574;50.534;8.500;2022-12-11T15:53:10;20.0;;;10.6;;
53674;SDS011;39574;50.534;8.500;2022-12-11T15:58:11;19.7;;;10.7;;
53674;SDS011;39574;50.534;8.500;2022-12-11T16:03:08;19.8;;;10.8;;
53674;SDS011;39574;50.534;8.500;2022-12-11T16:08:05;19.4;;;10.9;;
53674;SDS011;39574;50.534;8.500;2022-12-11T16:13:04;19.3;;;11.1;;
53674;SDS011;39574;50.534;8.500;2022-12-11T16:18:03;18.4;;;10.1;;
53674;SDS011;39574;50.534;8.500;2022-12-11T16:23:01;18.2;;;10.0;;
53674;SDS011;39574;50.534;8.500;2022-12-11T16:28:00;19.1;;;10.6;;
53674;SDS011;39574;50.534;8.500;2022-12-11T16:32:58;20.6;;;11.1;;
53674;SDS011;39574;50.534;8.500;2022-12-11T16:37:57;22.5;;;11.8;;
53674;SDS011;39574;50.534;8.500;2022-12-11T16:42:56;28.4;;;14.3;;
53674;SDS011;39574;50.534;8.500;2022-12-11T16:47:54;33.0;;;16.3;;
53674;SDS011;39574;50.534;8.500;2022-12-11T16:52:53;42.1;;;19.5;;
53674;SDS011;39574;50.534;8.500;2022-12-11T16:57:51;37.9;;;17.7;;
53674;SDS011;39574;50.534;8.500;2022-12-11T17:02:50;30.7;;;14.7;;
53674;SDS011;39574;50.534;8.500;2022-12-11T17:07:48;25.3;;;12.4;;
53674;SDS011;39574;50.534;8.500;2022-12-11T17:12:47;21.7;;;10.9;;
53674;SDS011;39574;50.534;8.500;2022-12-11T17:17:46;21.2;;;10.7;;
53674;SDS011;39574;50.534;8.500;2022-12-11T17:22:44;20.1;;;10.4;;
53674;SDS011;39574;50.534;8.500;2022-12-11T17:27:42;23.8;;;12.3;;
53674;SDS011;39574;50.534;8.500;2022-12-11T17:32:41;25.8;;;13.1;;
53674;SDS011;39574;50.534;8.500;2022-12-11T17:37:40;29.0;;;14.8;;
53674;SDS011;39574;50.534;8.500;2022-12-11T17:42:38;32.3;;;16.4;;
53674;SDS011;39574;50.534;8.500;2022-12-11T17:47:37;29.3;;;15.4;;
53674;SDS011;39574;50.534;8.500;2022-12-11T17:52:35;24.8;;;13.5;;
53674;SDS011;39574;50.534;8.500;2022-12-11T17:57:34;23.2;;;12.4;;
53674;SDS011;39574;50.534;8.500;2022-12-11T18:07:31;22.7;;;12.2;;
53674;SDS011;39574;50.534;8.500;2022-12-11T18:12:29;26.7;;;14.2;;
53674;SDS011;39574;50.534;8.500;2022-12-11T18:17:29;27.3;;;14.2;;
53674;SDS011;39574;50.534;8.500;2022-12-11T18:22:26;26.1;;;13.9;;
53674;SDS011;39574;50.534;8.500;2022-12-11T18:27:25;26.8;;;14.5;;
53674;SDS011;39574;50.534;8.500;2022-12-11T18:32:24;26.8;;;14.5;;
53674;SDS011;39574;50.534;8.500;2022-12-11T18:37:22;25.7;;;14.0;;
53674;SDS011;39574;50.534;8.500;2022-12-11T18:47:19;24.6;;;12.9;;
53674;SDS011;39574;50.534;8.500;2022-12-11T18:52:18;27.3;;;15.0;;
53674;SDS011;39574;50.534;8.500;2022-12-11T18:57:16;25.6;;;14.0;;
53674;SDS011;39574;50.534;8.500;2022-12-11T19:02:15;25.5;;;13.2;;
53674;SDS011;39574;50.534;8.500;2022-12-11T19:07:13;24.1;;;12.6;;
53674;SDS011;39574;50.534;8.500;2022-12-11T19:12:12;25.2;;;12.7;;
53674;SDS011;39574;50.534;8.500;2022-12-11T19:17:11;26.3;;;13.4;;
53674;SDS011;39574;50.534;8.500;2022-12-11T19:22:09;27.5;;;14.4;;
53674;SDS011;39574;50.534;8.500;2022-12-11T19:27:07;29.1;;;15.3;;
53674;SDS011;39574;50.534;8.500;2022-12-11T19:32:06;28.9;;;15.4;;
53674;SDS011;39574;50.534;8.500;2022-12-11T19:37:05;29.5;;;15.5;;
53674;SDS011;39574;50.534;8.500;2022-12-11T19:42:03;30.6;;;16.0;;
53674;SDS011;39574;50.534;8.500;2022-12-11T19:47:02;33.2;;;17.8;;
53674;SDS011;39574;50.534;8.500;2022-12-11T19:52:01;33.1;;;17.7;;
53674;SDS011;39574;50.534;8.500;2022-12-11T19:56:59;33.3;;;18.2;;
53674;SDS011;39574;50.534;8.500;2022-12-11T20:01:57;30.8;;;17.0;;
53674;SDS011;39574;50.534;8.500;2022-12-11T20:06:56;30.6;;;16.4;;
53674;SDS011;39574;50.534;8.500;2022-12-11T20:11:55;32.3;;;16.8;;
53674;SDS011;39574;50.534;8.500;2022-12-11T20:16:53;36.0;;;18.1;;
53674;SDS011;39574;50.534;8.500;2022-12-11T20:21:51;36.2;;;18.1;;
53674;SDS011;39574;50.534;8.500;2022-12-11T20:26:51;33.8;;;17.2;;
53674;SDS011;39574;50.534;8.500;2022-12-11T20:31:49;31.1;;;15.9;;
53674;SDS011;39574;50.534;8.500;2022-12-11T20:36:47;29.7;;;15.1;;
53674;SDS011;39574;50.534;8.500;2022-12-11T20:41:46;29.6;;;14.7;;
53674;SDS011;39574;50.534;8.500;2022-12-11T20:46:44;31.6;;;15.1;;
53674;SDS011;39574;50.534;8.500;2022-12-11T20:51:43;31.0;;;15.1;;
53674;SDS011;39574;50.534;8.500;2022-12-11T20:56:41;28.5;;;14.3;;
53674;SDS011;39574;50.534;8.500;2022-12-11T21:01:40;27.6;;;13.8;;
53674;SDS011;39574;50.534;8.500;2022-12-11T21:06:38;25.3;;;12.6;;
53674;SDS011;39574;50.534;8.500;2022-12-11T21:11:37;26.1;;;12.9;;
53674;SDS011;39574;50.534;8.500;2022-12-11T21:16:36;27.1;;;13.8;;
53674;SDS011;39574;50.534;8.500;2022-12-11T21:21:34;30.6;;;15.7;;
53674;SDS011;39574;50.534;8.500;2022-12-11T21:26:32;31.0;;;16.2;;
53674;SDS011;39574;50.534;8.500;2022-12-11T21:31:32;30.8;;;16.4;;
53674;SDS011;39574;50.534;8.500;2022-12-11T21:36:30;31.1;;;16.4;;
53674;SDS011;39574;50.534;8.500;2022-12-11T21:41:28;32.5;;;17.0;;
53674;SDS011;39574;50.534;8.500;2022-12-11T21:46:27;34.3;;;17.7;;
53674;SDS011;39574;50.534;8.500;2022-12-11T21:51:25;34.2;;;17.5;;
53674;SDS011;39574;50.534;8.500;2022-12-11T21:56:27;36.4;;;17.6;;
53674;SDS011;39574;50.534;8.500;2022-12-11T22:01:23;34.9;;;17.6;;
53674;SDS011;39574;50.534;8.500;2022-12-11T22:06:21;36.5;;;18.4;;
53674;SDS011;39574;50.534;8.500;2022-12-11T22:11:20;35.8;;;18.2;;
53674;SDS011;39574;50.534;8.500;2022-12-11T22:16:18;35.3;;;18.8;;
53674;SDS011;39574;50.534;8.500;2022-12-11T22:21:16;34.4;;;18.6;;
53674;SDS011;39574;50.534;8.500;2022-12-11T22:26:16;35.8;;;18.3;;
53674;SDS011;39574;50.534;8.500;2022-12-11T22:31:14;36.7;;;18.6;;
53674;SDS011;39574;50.534;8.500;2022-12-11T22:36:12;35.1;;;17.5;;
53674;SDS011;39574;50.534;8.500;2022-12-11T22:41:10;35.2;;;17.3;;
53674;SDS011;39574;50.534;8.500;2022-12-11T22:46:12;35.3;;;17.4;;
53674;SDS011;39574;50.534;8.500;2022-12-11T22:51:07;34.7;;;17.1;;
53674;SDS011;39574;50.534;8.500;2022-12-11T22:56:06;35.3;;;17.1;;
53674;SDS011;39574;50.534;8.500;2022-12-11T23:01:07;34.9;;;16.9;;
53674;SDS011;39574;50.534;8.500;2022-12-11T23:06:04;35.7;;;17.0;;
53674;SDS011;39574;50.534;8.500;2022-12-11T23:11:02;36.2;;;17.4;;
53674;SDS011;39574;50.534;8.500;2022-12-11T23:16:00;35.8;;;17.4;;
53674;SDS011;39574;50.534;8.500;2022-12-11T23:20:59;35.1;;;17.4;;
53674;SDS011;39574;50.534;8.500;2022-12-11T23:25:57;35.1;;;17.6;;
53674;SDS011;39574;50.534;8.500;2022-12-11T23:30:56;35.6;;;17.7;;
53674;SDS011;39574;50.534;8.500;2022-12-11T23:35:54;33.6;;;17.1;;
53674;SDS011;39574;50.534;8.500;2022-12-11T23:40:53;32.2;;;16.5;;
53674;SDS011;39574;50.534;8.500;2022-12-11T23:45:51;33.3;;;16.8;;
53674;SDS011;39574;50.534;8.500;2022-12-11T23:50:50;33.0;;;16.7;;
53674;SDS011;39574;50.534;8.500;2022-12-11T23:55:48;34.3;;;16.9;;
